sensor_id;sensor_type;location;lat;lon;timestamp;temperature;humidity
6377;DHT22;3221;48.858;10.128;2023-03-17T00:01:40;4.20;99.90
6377;DHT22;3221;48.858;10.128;2023-03-17T00:04:11;4.20;99.90
6377;DHT22;3221;48.858;10.128;2023-03-17T00:06:38;4.20;99.90
6377;DHT22;3221;48.858;10.128;2023-03-17T00:09:16;4.20;99.90
6377;DHT22;3221;48.858;10.128;2023-03-17T00:11:44;4.10;99.90
6377;DHT22;3221;48.858;10.128;2023-03-17T00:14:11;4.10;99.90
6377;DHT22;3221;48.858;10.128;2023-03-17T00:16:43;4.10;99.90
6377;DHT22;3221;48.858;10.128;2023-03-17T00:19:28;4.10;99.90
6377;DHT22;3221;48.858;10.128;2023-03-17T00:21:59;4.00;99.90
6377;DHT22;3221;48.858;10.128;2023-03-17T00:24:26;4.00;99.90
6377;DHT22;3221;48.858;10.128;2023-03-17T00:26:53;4.00;99.90
6377;DHT22;3221;48.858;10.128;2023-03-17T00:29:20;4.00;99.90
6377;DHT22;3221;48.858;10.128;2023-03-17T00:31:48;4.00;99.90
6377;DHT22;3221;48.858;10.128;2023-03-17T00:34:18;3.90;99.90
6377;DHT22;3221;48.858;10.128;2023-03-17T00:36:47;3.90;99.90
6377;DHT22;3221;48.858;10.128;2023-03-17T00:39:15;3.90;99.90
6377;DHT22;3221;48.858;10.128;2023-03-17T00:41:42;3.90;99.90
6377;DHT22;3221;48.858;10.128;2023-03-17T00:44:09;3.90;99.90
6377;DHT22;3221;48.858;10.128;2023-03-17T00:46:38;3.90;99.90
6377;DHT22;3221;48.858;10.128;2023-03-17T00:49:21;3.90;99.90
6377;DHT22;3221;48.858;10.128;2023-03-17T00:51:49;3.90;99.90
6377;DHT22;3221;48.858;10.128;2023-03-17T00:54:17;3.90;99.90
6377;DHT22;3221;48.858;10.128;2023-03-17T00:56:45;3.90;99.90
6377;DHT22;3221;48.858;10.128;2023-03-17T00:59:19;3.90;99.90
6377;DHT22;3221;48.858;10.128;2023-03-17T01:01:47;3.90;99.90
6377;DHT22;3221;48.858;10.128;2023-03-17T01:04:15;3.80;99.90
6377;DHT22;3221;48.858;10.128;2023-03-17T01:06:42;3.80;99.90
6377;DHT22;3221;48.858;10.128;2023-03-17T01:09:15;3.80;99.90
6377;DHT22;3221;48.858;10.128;2023-03-17T01:11:42;3.80;99.90
6377;DHT22;3221;48.858;10.128;2023-03-17T01:14:11;3.80;99.90
6377;DHT22;3221;48.858;10.128;2023-03-17T01:16:38;3.80;99.90
6377;DHT22;3221;48.858;10.128;2023-03-17T01:19:07;3.80;99.90
6377;DHT22;3221;48.858;10.128;2023-03-17T01:21:35;3.80;99.90
6377;DHT22;3221;48.858;10.128;2023-03-17T01:24:02;3.70;99.90
6377;DHT22;3221;48.858;10.128;2023-03-17T01:26:30;3.70;99.90
6377;DHT22;3221;48.858;10.128;2023-03-17T01:28:58;3.70;99.90
6377;DHT22;3221;48.858;10.128;2023-03-17T01:31:25;3.70;99.90
6377;DHT22;3221;48.858;10.128;2023-03-17T01:33:52;3.70;99.90
6377;DHT22;3221;48.858;10.128;2023-03-17T01:36:23;3.70;99.90
6377;DHT22;3221;48.858;10.128;2023-03-17T01:38:50;3.70;99.90
6377;DHT22;3221;48.858;10.128;2023-03-17T01:41:18;3.70;99.90
6377;DHT22;3221;48.858;10.128;2023-03-17T01:43:46;3.70;99.90
6377;DHT22;3221;48.858;10.128;2023-03-17T01:51:38;3.60;99.90
6377;DHT22;3221;48.858;10.128;2023-03-17T01:54:13;3.60;99.90
6377;DHT22;3221;48.858;10.128;2023-03-17T01:56:43;3.60;99.90
6377;DHT22;3221;48.858;10.128;2023-03-17T01:59:17;3.60;99.90
6377;DHT22;3221;48.858;10.128;2023-03-17T02:01:47;3.60;99.90
6377;DHT22;3221;48.858;10.128;2023-03-17T02:04:15;3.60;99.90
6377;DHT22;3221;48.858;10.128;2023-03-17T02:06:43;3.60;99.90
6377;DHT22;3221;48.858;10.128;2023-03-17T02:09:25;3.60;99.90
6377;DHT22;3221;48.858;10.128;2023-03-17T02:11:53;3.60;99.90
6377;DHT22;3221;48.858;10.128;2023-03-17T02:14:20;3.60;99.90
6377;DHT22;3221;48.858;10.128;2023-03-17T02:16:47;3.60;99.90
6377;DHT22;3221;48.858;10.128;2023-03-17T02:19:15;3.70;99.90
6377;DHT22;3221;48.858;10.128;2023-03-17T02:24:31;3.70;99.90
6377;DHT22;3221;48.858;10.128;2023-03-17T02:27:07;3.70;99.90
6377;DHT22;3221;48.858;10.128;2023-03-17T02:29:37;3.70;99.90
6377;DHT22;3221;48.858;10.128;2023-03-17T02:32:07;3.70;99.90
6377;DHT22;3221;48.858;10.128;2023-03-17T02:34:35;3.80;99.90
6377;DHT22;3221;48.858;10.128;2023-03-17T02:37:03;3.80;99.90
6377;DHT22;3221;48.858;10.128;2023-03-17T02:39:30;3.80;99.90
6377;DHT22;3221;48.858;10.128;2023-03-17T02:41:58;3.80;99.90
6377;DHT22;3221;48.858;10.128;2023-03-17T02:44:24;3.90;99.90
6377;DHT22;3221;48.858;10.128;2023-03-17T02:46:52;3.90;99.90
6377;DHT22;3221;48.858;10.128;2023-03-17T02:49:19;3.90;99.90
6377;DHT22;3221;48.858;10.128;2023-03-17T02:51:46;3.90;99.90
6377;DHT22;3221;48.858;10.128;2023-03-17T02:54:13;3.90;99.90
6377;DHT22;3221;48.858;10.128;2023-03-17T02:56:40;3.90;99.90
6377;DHT22;3221;48.858;10.128;2023-03-17T02:59:07;3.80;99.90
6377;DHT22;3221;48.858;10.128;2023-03-17T03:01:34;3.80;99.90
6377;DHT22;3221;48.858;10.128;2023-03-17T03:04:02;3.80;99.90
6377;DHT22;3221;48.858;10.128;2023-03-17T03:06:29;3.80;99.90
6377;DHT22;3221;48.858;10.128;2023-03-17T03:08:57;3.80;99.90
6377;DHT22;3221;48.858;10.128;2023-03-17T03:11:24;3.80;99.90
6377;DHT22;3221;48.858;10.128;2023-03-17T03:13:50;3.80;99.90
6377;DHT22;3221;48.858;10.128;2023-03-17T03:16:17;3.80;99.90
6377;DHT22;3221;48.858;10.128;2023-03-17T03:18:44;3.80;99.90
6377;DHT22;3221;48.858;10.128;2023-03-17T03:21:12;3.90;99.90
6377;DHT22;3221;48.858;10.128;2023-03-17T03:23:39;3.90;99.90
6377;DHT22;3221;48.858;10.128;2023-03-17T03:26:06;3.90;99.90
6377;DHT22;3221;48.858;10.128;2023-03-17T03:28:33;3.90;99.90
6377;DHT22;3221;48.858;10.128;2023-03-17T03:31:00;3.90;99.90
6377;DHT22;3221;48.858;10.128;2023-03-17T03:33:27;3.90;99.90
6377;DHT22;3221;48.858;10.128;2023-03-17T03:35:54;3.80;99.90
6377;DHT22;3221;48.858;10.128;2023-03-17T03:38:21;3.80;99.90
6377;DHT22;3221;48.858;10.128;2023-03-17T03:40:47;3.80;99.90
6377;DHT22;3221;48.858;10.128;2023-03-17T03:43:14;3.90;99.90
6377;DHT22;3221;48.858;10.128;2023-03-17T03:45:49;3.90;99.90
6377;DHT22;3221;48.858;10.128;2023-03-17T03:48:17;3.90;99.90
6377;DHT22;3221;48.858;10.128;2023-03-17T03:50:44;3.90;99.90
6377;DHT22;3221;48.858;10.128;2023-03-17T03:53:11;3.90;99.90
6377;DHT22;3221;48.858;10.128;2023-03-17T03:55:38;3.90;99.90
6377;DHT22;3221;48.858;10.128;2023-03-17T03:58:05;3.90;99.90
6377;DHT22;3221;48.858;10.128;2023-03-17T04:00:32;4.00;99.90
6377;DHT22;3221;48.858;10.128;2023-03-17T04:02:59;4.00;99.90
6377;DHT22;3221;48.858;10.128;2023-03-17T04:05:27;4.10;99.90
6377;DHT22;3221;48.858;10.128;2023-03-17T04:07:53;4.10;99.90
6377;DHT22;3221;48.858;10.128;2023-03-17T04:10:20;4.10;99.90
6377;DHT22;3221;48.858;10.128;2023-03-17T04:12:48;4.20;99.90
6377;DHT22;3221;48.858;10.128;2023-03-17T04:15:17;4.20;99.90
6377;DHT22;3221;48.858;10.128;2023-03-17T04:17:45;4.10;99.90
6377;DHT22;3221;48.858;10.128;2023-03-17T04:20:13;4.10;99.90
6377;DHT22;3221;48.858;10.128;2023-03-17T04:22:41;4.10;99.90
6377;DHT22;3221;48.858;10.128;2023-03-17T04:25:10;4.00;99.90
6377;DHT22;3221;48.858;10.128;2023-03-17T04:27:37;4.10;99.90
6377;DHT22;3221;48.858;10.128;2023-03-17T04:30:04;4.10;99.90
6377;DHT22;3221;48.858;10.128;2023-03-17T04:32:31;4.10;99.90
6377;DHT22;3221;48.858;10.128;2023-03-17T04:34:58;4.00;99.90
6377;DHT22;3221;48.858;10.128;2023-03-17T04:37:25;4.00;99.90
6377;DHT22;3221;48.858;10.128;2023-03-17T04:39:52;4.00;99.90
6377;DHT22;3221;48.858;10.128;2023-03-17T04:42:20;4.00;99.90
6377;DHT22;3221;48.858;10.128;2023-03-17T04:44:47;4.00;99.90
6377;DHT22;3221;48.858;10.128;2023-03-17T04:47:14;4.10;99.90
6377;DHT22;3221;48.858;10.128;2023-03-17T04:49:42;4.10;99.90
6377;DHT22;3221;48.858;10.128;2023-03-17T04:52:09;4.10;99.90
6377;DHT22;3221;48.858;10.128;2023-03-17T04:54:35;4.20;99.90
6377;DHT22;3221;48.858;10.128;2023-03-17T04:57:02;4.20;99.90
6377;DHT22;3221;48.858;10.128;2023-03-17T04:59:29;4.20;99.90
6377;DHT22;3221;48.858;10.128;2023-03-17T05:01:56;4.30;99.90
6377;DHT22;3221;48.858;10.128;2023-03-17T05:04:23;4.30;99.90
6377;DHT22;3221;48.858;10.128;2023-03-17T05:06:58;4.30;99.90
6377;DHT22;3221;48.858;10.128;2023-03-17T05:09:25;4.30;99.90
6377;DHT22;3221;48.858;10.128;2023-03-17T05:11:54;4.30;99.90
6377;DHT22;3221;48.858;10.128;2023-03-17T05:14:21;4.40;99.90
6377;DHT22;3221;48.858;10.128;2023-03-17T05:16:48;4.30;99.90
6377;DHT22;3221;48.858;10.128;2023-03-17T05:19:16;4.30;99.90
6377;DHT22;3221;48.858;10.128;2023-03-17T05:21:43;4.30;99.90
6377;DHT22;3221;48.858;10.128;2023-03-17T05:24:10;4.30;99.90
6377;DHT22;3221;48.858;10.128;2023-03-17T05:26:38;4.30;99.90
6377;DHT22;3221;48.858;10.128;2023-03-17T05:29:05;4.20;99.90
6377;DHT22;3221;48.858;10.128;2023-03-17T05:31:32;4.20;99.90
6377;DHT22;3221;48.858;10.128;2023-03-17T05:33:59;4.10;99.90
6377;DHT22;3221;48.858;10.128;2023-03-17T05:36:26;4.10;99.90
6377;DHT22;3221;48.858;10.128;2023-03-17T05:38:53;4.10;99.90
6377;DHT22;3221;48.858;10.128;2023-03-17T05:41:20;4.10;99.90
6377;DHT22;3221;48.858;10.128;2023-03-17T05:43:47;4.10;99.90
6377;DHT22;3221;48.858;10.128;2023-03-17T05:46:22;4.10;99.90
6377;DHT22;3221;48.858;10.128;2023-03-17T05:48:49;4.10;99.90
6377;DHT22;3221;48.858;10.128;2023-03-17T05:51:16;4.10;99.90
6377;DHT22;3221;48.858;10.128;2023-03-17T05:53:43;4.10;99.90
6377;DHT22;3221;48.858;10.128;2023-03-17T05:56:11;4.10;99.90
6377;DHT22;3221;48.858;10.128;2023-03-17T05:58:38;4.10;99.90
6377;DHT22;3221;48.858;10.128;2023-03-17T06:01:05;4.10;99.90
6377;DHT22;3221;48.858;10.128;2023-03-17T06:03:33;4.10;99.90
6377;DHT22;3221;48.858;10.128;2023-03-17T06:06:00;4.10;99.90
6377;DHT22;3221;48.858;10.128;2023-03-17T06:08:29;4.10;99.90
6377;DHT22;3221;48.858;10.128;2023-03-17T06:10:56;4.10;99.90
6377;DHT22;3221;48.858;10.128;2023-03-17T06:13:23;4.10;99.90
6377;DHT22;3221;48.858;10.128;2023-03-17T06:15:50;4.20;99.90
6377;DHT22;3221;48.858;10.128;2023-03-17T06:18:17;4.20;99.90
6377;DHT22;3221;48.858;10.128;2023-03-17T06:20:45;4.20;99.90
6377;DHT22;3221;48.858;10.128;2023-03-17T06:23:12;4.20;99.90
6377;DHT22;3221;48.858;10.128;2023-03-17T06:25:39;4.20;99.90
6377;DHT22;3221;48.858;10.128;2023-03-17T06:28:06;4.20;99.90
6377;DHT22;3221;48.858;10.128;2023-03-17T06:30:33;4.30;99.90
6377;DHT22;3221;48.858;10.128;2023-03-17T06:33:01;4.30;99.90
6377;DHT22;3221;48.858;10.128;2023-03-17T06:35:29;4.20;99.90
6377;DHT22;3221;48.858;10.128;2023-03-17T06:37:56;4.10;99.90
6377;DHT22;3221;48.858;10.128;2023-03-17T06:40:23;4.10;99.90
6377;DHT22;3221;48.858;10.128;2023-03-17T06:42:50;4.10;99.90
6377;DHT22;3221;48.858;10.128;2023-03-17T06:45:17;4.00;99.90
6377;DHT22;3221;48.858;10.128;2023-03-17T06:47:44;4.10;99.90
6377;DHT22;3221;48.858;10.128;2023-03-17T06:50:11;4.20;99.90
6377;DHT22;3221;48.858;10.128;2023-03-17T06:52:38;4.40;99.90
6377;DHT22;3221;48.858;10.128;2023-03-17T06:55:07;4.60;99.90
6377;DHT22;3221;48.858;10.128;2023-03-17T06:57:34;4.90;99.90
6377;DHT22;3221;48.858;10.128;2023-03-17T07:00:01;5.10;99.90
6377;DHT22;3221;48.858;10.128;2023-03-17T07:02:36;5.30;99.90
6377;DHT22;3221;48.858;10.128;2023-03-17T07:05:03;5.40;99.90
6377;DHT22;3221;48.858;10.128;2023-03-17T07:07:31;5.50;99.90
6377;DHT22;3221;48.858;10.128;2023-03-17T07:10:00;5.50;99.90
6377;DHT22;3221;48.858;10.128;2023-03-17T07:12:27;5.60;99.90
6377;DHT22;3221;48.858;10.128;2023-03-17T07:14:55;5.70;99.90
6377;DHT22;3221;48.858;10.128;2023-03-17T07:17:22;5.80;99.90
6377;DHT22;3221;48.858;10.128;2023-03-17T07:19:49;5.70;99.90
6377;DHT22;3221;48.858;10.128;2023-03-17T07:22:16;5.70;99.90
6377;DHT22;3221;48.858;10.128;2023-03-17T07:24:48;5.60;99.90
6377;DHT22;3221;48.858;10.128;2023-03-17T07:27:15;5.50;99.90
6377;DHT22;3221;48.858;10.128;2023-03-17T07:29:42;5.30;99.90
6377;DHT22;3221;48.858;10.128;2023-03-17T07:32:10;5.20;99.90
6377;DHT22;3221;48.858;10.128;2023-03-17T07:34:37;5.30;99.90
6377;DHT22;3221;48.858;10.128;2023-03-17T07:37:04;5.40;99.90
6377;DHT22;3221;48.858;10.128;2023-03-17T07:39:32;5.50;99.90
6377;DHT22;3221;48.858;10.128;2023-03-17T07:41:59;5.50;99.90
6377;DHT22;3221;48.858;10.128;2023-03-17T07:44:26;5.70;99.90
6377;DHT22;3221;48.858;10.128;2023-03-17T07:46:53;5.70;99.90
6377;DHT22;3221;48.858;10.128;2023-03-17T07:49:20;5.80;99.90
6377;DHT22;3221;48.858;10.128;2023-03-17T07:52:04;6.20;99.90
6377;DHT22;3221;48.858;10.128;2023-03-17T07:54:31;6.60;99.90
6377;DHT22;3221;48.858;10.128;2023-03-17T07:56:58;6.90;99.90
6377;DHT22;3221;48.858;10.128;2023-03-17T07:59:25;7.00;99.90
6377;DHT22;3221;48.858;10.128;2023-03-17T08:01:52;7.20;99.90
6377;DHT22;3221;48.858;10.128;2023-03-17T08:04:19;7.30;99.90
6377;DHT22;3221;48.858;10.128;2023-03-17T08:06:46;7.30;99.90
6377;DHT22;3221;48.858;10.128;2023-03-17T08:09:13;7.40;99.90
6377;DHT22;3221;48.858;10.128;2023-03-17T08:11:40;7.40;99.90
6377;DHT22;3221;48.858;10.128;2023-03-17T08:14:07;7.30;99.90
6377;DHT22;3221;48.858;10.128;2023-03-17T08:16:35;7.40;99.90
6377;DHT22;3221;48.858;10.128;2023-03-17T08:19:02;7.50;99.90
6377;DHT22;3221;48.858;10.128;2023-03-17T08:21:29;7.40;99.90
6377;DHT22;3221;48.858;10.128;2023-03-17T08:23:56;7.50;99.90
6377;DHT22;3221;48.858;10.128;2023-03-17T08:26:23;7.60;99.90
6377;DHT22;3221;48.858;10.128;2023-03-17T08:28:51;7.70;99.90
6377;DHT22;3221;48.858;10.128;2023-03-17T08:31:20;7.70;99.90
6377;DHT22;3221;48.858;10.128;2023-03-17T08:33:52;7.90;99.90
6377;DHT22;3221;48.858;10.128;2023-03-17T08:36:20;8.10;99.90
6377;DHT22;3221;48.858;10.128;2023-03-17T08:38:47;8.20;99.90
6377;DHT22;3221;48.858;10.128;2023-03-17T08:41:17;8.10;99.90
6377;DHT22;3221;48.858;10.128;2023-03-17T08:43:44;8.20;99.90
6377;DHT22;3221;48.858;10.128;2023-03-17T08:48:45;8.20;99.90
6377;DHT22;3221;48.858;10.128;2023-03-17T08:51:14;8.20;99.90
6377;DHT22;3221;48.858;10.128;2023-03-17T08:53:44;8.30;99.90
6377;DHT22;3221;48.858;10.128;2023-03-17T08:56:13;8.30;99.90
6377;DHT22;3221;48.858;10.128;2023-03-17T08:58:40;8.40;99.90
6377;DHT22;3221;48.858;10.128;2023-03-17T09:01:09;8.50;99.90
6377;DHT22;3221;48.858;10.128;2023-03-17T09:03:39;8.60;99.90
6377;DHT22;3221;48.858;10.128;2023-03-17T09:06:08;8.70;99.90
6377;DHT22;3221;48.858;10.128;2023-03-17T09:08:39;8.80;99.90
6377;DHT22;3221;48.858;10.128;2023-03-17T09:11:06;9.00;99.90
6377;DHT22;3221;48.858;10.128;2023-03-17T09:13:34;9.20;99.90
6377;DHT22;3221;48.858;10.128;2023-03-17T09:16:02;9.30;99.90
6377;DHT22;3221;48.858;10.128;2023-03-17T09:18:29;9.30;99.90
6377;DHT22;3221;48.858;10.128;2023-03-17T09:20:58;9.40;99.90
6377;DHT22;3221;48.858;10.128;2023-03-17T09:23:25;9.60;99.90
6377;DHT22;3221;48.858;10.128;2023-03-17T09:25:52;9.80;99.90
6377;DHT22;3221;48.858;10.128;2023-03-17T09:28:19;9.90;99.90
6377;DHT22;3221;48.858;10.128;2023-03-17T09:30:46;10.00;99.90
6377;DHT22;3221;48.858;10.128;2023-03-17T09:33:13;10.10;99.90
6377;DHT22;3221;48.858;10.128;2023-03-17T09:35:40;10.30;99.90
6377;DHT22;3221;48.858;10.128;2023-03-17T09:38:08;10.50;99.90
6377;DHT22;3221;48.858;10.128;2023-03-17T09:40:43;10.60;99.90
6377;DHT22;3221;48.858;10.128;2023-03-17T09:45:54;10.90;99.90
6377;DHT22;3221;48.858;10.128;2023-03-17T09:48:48;10.90;99.90
6377;DHT22;3221;48.858;10.128;2023-03-17T09:51:18;11.00;99.90
6377;DHT22;3221;48.858;10.128;2023-03-17T09:53:53;11.30;99.90
6377;DHT22;3221;48.858;10.128;2023-03-17T09:56:33;11.40;99.90
6377;DHT22;3221;48.858;10.128;2023-03-17T09:59:14;11.50;99.90
6377;DHT22;3221;48.858;10.128;2023-03-17T10:01:45;11.70;99.90
6377;DHT22;3221;48.858;10.128;2023-03-17T10:04:18;11.80;99.90
6377;DHT22;3221;48.858;10.128;2023-03-17T10:06:45;11.90;99.90
6377;DHT22;3221;48.858;10.128;2023-03-17T10:09:57;12.00;99.90
6377;DHT22;3221;48.858;10.128;2023-03-17T10:15:19;12.20;99.90
6377;DHT22;3221;48.858;10.128;2023-03-17T10:17:47;12.20;99.90
6377;DHT22;3221;48.858;10.128;2023-03-17T10:20:24;12.30;99.90
6377;DHT22;3221;48.858;10.128;2023-03-17T10:22:59;12.50;99.90
6377;DHT22;3221;48.858;10.128;2023-03-17T10:25:30;12.70;99.90
6377;DHT22;3221;48.858;10.128;2023-03-17T10:28:17;12.90;99.90
6377;DHT22;3221;48.858;10.128;2023-03-17T10:30:47;12.90;99.90
6377;DHT22;3221;48.858;10.128;2023-03-17T10:33:13;13.10;99.90
6377;DHT22;3221;48.858;10.128;2023-03-17T10:35:41;13.10;99.90
6377;DHT22;3221;48.858;10.128;2023-03-17T10:38:19;13.10;99.90
6377;DHT22;3221;48.858;10.128;2023-03-17T10:40:58;13.10;99.90
6377;DHT22;3221;48.858;10.128;2023-03-17T10:43:34;13.20;99.90
6377;DHT22;3221;48.858;10.128;2023-03-17T10:46:06;13.20;99.90
6377;DHT22;3221;48.858;10.128;2023-03-17T10:48:37;13.30;99.90
6377;DHT22;3221;48.858;10.128;2023-03-17T10:51:09;13.40;99.90
6377;DHT22;3221;48.858;10.128;2023-03-17T10:53:39;13.60;99.90
6377;DHT22;3221;48.858;10.128;2023-03-17T10:56:32;13.60;99.90
6377;DHT22;3221;48.858;10.128;2023-03-17T10:59:20;13.60;99.90
6377;DHT22;3221;48.858;10.128;2023-03-17T11:01:53;13.60;99.90
6377;DHT22;3221;48.858;10.128;2023-03-17T11:06:56;13.90;99.90
6377;DHT22;3221;48.858;10.128;2023-03-17T11:09:25;13.90;99.90
6377;DHT22;3221;48.858;10.128;2023-03-17T11:12:18;14.10;99.90
6377;DHT22;3221;48.858;10.128;2023-03-17T11:14:48;14.10;99.80
6377;DHT22;3221;48.858;10.128;2023-03-17T11:17:20;14.10;99.70
6377;DHT22;3221;48.858;10.128;2023-03-17T11:22:33;14.50;99.10
6377;DHT22;3221;48.858;10.128;2023-03-17T11:25:15;14.80;98.60
6377;DHT22;3221;48.858;10.128;2023-03-17T11:30:35;14.80;98.00
6377;DHT22;3221;48.858;10.128;2023-03-17T11:38:30;14.90;97.50
6377;DHT22;3221;48.858;10.128;2023-03-17T11:46:55;15.30;96.80
6377;DHT22;3221;48.858;10.128;2023-03-17T11:49:27;15.40;96.50
6377;DHT22;3221;48.858;10.128;2023-03-17T11:59:57;15.70;95.10
6377;DHT22;3221;48.858;10.128;2023-03-17T12:05:12;15.80;93.60
6377;DHT22;3221;48.858;10.128;2023-03-17T12:07:48;15.80;92.60
6377;DHT22;3221;48.858;10.128;2023-03-17T12:10:33;16.00;92.50
6377;DHT22;3221;48.858;10.128;2023-03-17T12:13:11;16.00;89.80
6377;DHT22;3221;48.858;10.128;2023-03-17T12:15:40;15.80;91.30
6377;DHT22;3221;48.858;10.128;2023-03-17T12:18:22;15.80;91.40
6377;DHT22;3221;48.858;10.128;2023-03-17T12:21:19;15.80;91.50
6377;DHT22;3221;48.858;10.128;2023-03-17T12:24:12;15.90;90.10
6377;DHT22;3221;48.858;10.128;2023-03-17T12:30:05;15.90;89.90
6377;DHT22;3221;48.858;10.128;2023-03-17T12:32:39;15.90;89.90
6377;DHT22;3221;48.858;10.128;2023-03-17T12:35:22;15.90;89.30
6377;DHT22;3221;48.858;10.128;2023-03-17T12:37:52;16.00;87.50
6377;DHT22;3221;48.858;10.128;2023-03-17T12:51:59;16.10;87.60
6377;DHT22;3221;48.858;10.128;2023-03-17T12:54:30;16.20;87.60
6377;DHT22;3221;48.858;10.128;2023-03-17T12:59:45;16.30;86.60
6377;DHT22;3221;48.858;10.128;2023-03-17T13:04:57;16.40;89.10
6377;DHT22;3221;48.858;10.128;2023-03-17T13:07:40;16.40;89.20
6377;DHT22;3221;48.858;10.128;2023-03-17T13:21:11;16.80;90.40
6377;DHT22;3221;48.858;10.128;2023-03-17T13:23:57;16.70;91.10
6377;DHT22;3221;48.858;10.128;2023-03-17T13:27:00;16.60;90.90
6377;DHT22;3221;48.858;10.128;2023-03-17T13:37:34;16.60;90.90
6377;DHT22;3221;48.858;10.128;2023-03-17T13:40:23;16.70;91.20
6377;DHT22;3221;48.858;10.128;2023-03-17T13:45:54;16.60;91.00
6377;DHT22;3221;48.858;10.128;2023-03-17T13:48:41;16.60;91.20
6377;DHT22;3221;48.858;10.128;2023-03-17T13:53:53;16.40;91.60
6377;DHT22;3221;48.858;10.128;2023-03-17T14:01:34;16.30;90.60
6377;DHT22;3221;48.858;10.128;2023-03-17T14:04:03;16.10;90.30
6377;DHT22;3221;48.858;10.128;2023-03-17T14:06:35;16.10;91.00
6377;DHT22;3221;48.858;10.128;2023-03-17T14:09:12;15.90;90.80
6377;DHT22;3221;48.858;10.128;2023-03-17T14:11:45;15.90;90.60
6377;DHT22;3221;48.858;10.128;2023-03-17T14:14:36;16.00;90.90
6377;DHT22;3221;48.858;10.128;2023-03-17T14:17:27;15.80;91.00
6377;DHT22;3221;48.858;10.128;2023-03-17T14:20:06;15.80;91.00
6377;DHT22;3221;48.858;10.128;2023-03-17T14:22:42;15.80;90.70
6377;DHT22;3221;48.858;10.128;2023-03-17T14:25:17;15.70;91.00
6377;DHT22;3221;48.858;10.128;2023-03-17T14:27:47;15.70;91.40
6377;DHT22;3221;48.858;10.128;2023-03-17T14:35:22;15.70;90.50
6377;DHT22;3221;48.858;10.128;2023-03-17T14:37:49;15.60;91.30
6377;DHT22;3221;48.858;10.128;2023-03-17T14:40:22;15.80;91.50
6377;DHT22;3221;48.858;10.128;2023-03-17T14:42:49;15.60;91.30
6377;DHT22;3221;48.858;10.128;2023-03-17T14:45:28;15.50;91.60
6377;DHT22;3221;48.858;10.128;2023-03-17T14:47:56;15.70;91.00
6377;DHT22;3221;48.858;10.128;2023-03-17T14:50:29;15.60;91.60
6377;DHT22;3221;48.858;10.128;2023-03-17T14:52:59;15.70;91.70
6377;DHT22;3221;48.858;10.128;2023-03-17T14:55:45;15.80;91.50
6377;DHT22;3221;48.858;10.128;2023-03-17T14:58:42;15.80;91.30
6377;DHT22;3221;48.858;10.128;2023-03-17T15:01:36;15.90;91.50
6377;DHT22;3221;48.858;10.128;2023-03-17T15:04:11;16.00;91.10
6377;DHT22;3221;48.858;10.128;2023-03-17T15:07:02;16.00;90.60
6377;DHT22;3221;48.858;10.128;2023-03-17T15:12:14;16.10;90.50
6377;DHT22;3221;48.858;10.128;2023-03-17T15:14:43;16.00;90.30
6377;DHT22;3221;48.858;10.128;2023-03-17T15:17:20;16.00;90.60
6377;DHT22;3221;48.858;10.128;2023-03-17T15:19:49;15.80;90.20
6377;DHT22;3221;48.858;10.128;2023-03-17T15:22:31;15.70;90.40
6377;DHT22;3221;48.858;10.128;2023-03-17T15:27:41;15.60;90.50
6377;DHT22;3221;48.858;10.128;2023-03-17T15:30:09;15.40;91.00
6377;DHT22;3221;48.858;10.128;2023-03-17T15:32:36;15.50;90.70
6377;DHT22;3221;48.858;10.128;2023-03-17T15:35:04;15.40;90.10
6377;DHT22;3221;48.858;10.128;2023-03-17T15:37:33;15.40;90.50
6377;DHT22;3221;48.858;10.128;2023-03-17T15:40:01;15.30;90.50
6377;DHT22;3221;48.858;10.128;2023-03-17T15:42:30;15.20;90.10
6377;DHT22;3221;48.858;10.128;2023-03-17T15:44:58;15.10;90.60
6377;DHT22;3221;48.858;10.128;2023-03-17T15:47:31;15.10;88.50
6377;DHT22;3221;48.858;10.128;2023-03-17T15:50:22;15.00;91.30
6377;DHT22;3221;48.858;10.128;2023-03-17T15:52:50;14.90;90.90
6377;DHT22;3221;48.858;10.128;2023-03-17T15:55:23;15.00;90.80
6377;DHT22;3221;48.858;10.128;2023-03-17T15:57:50;15.10;90.00
6377;DHT22;3221;48.858;10.128;2023-03-17T16:00:21;15.10;91.20
6377;DHT22;3221;48.858;10.128;2023-03-17T16:02:53;14.80;90.60
6377;DHT22;3221;48.858;10.128;2023-03-17T16:05:23;14.60;90.20
6377;DHT22;3221;48.858;10.128;2023-03-17T16:07:51;14.40;91.50
6377;DHT22;3221;48.858;10.128;2023-03-17T16:10:23;14.50;91.50
6377;DHT22;3221;48.858;10.128;2023-03-17T16:12:51;14.70;91.30
6377;DHT22;3221;48.858;10.128;2023-03-17T16:15:29;14.70;91.30
6377;DHT22;3221;48.858;10.128;2023-03-17T16:17:59;14.70;91.30
6377;DHT22;3221;48.858;10.128;2023-03-17T16:23:15;14.60;91.40
6377;DHT22;3221;48.858;10.128;2023-03-17T16:25:43;14.40;91.90
6377;DHT22;3221;48.858;10.128;2023-03-17T16:28:22;14.40;91.60
6377;DHT22;3221;48.858;10.128;2023-03-17T16:30:50;14.30;91.60
6377;DHT22;3221;48.858;10.128;2023-03-17T16:33:28;14.30;91.90
6377;DHT22;3221;48.858;10.128;2023-03-17T16:35:59;14.30;91.40
6377;DHT22;3221;48.858;10.128;2023-03-17T16:38:29;14.10;91.20
6377;DHT22;3221;48.858;10.128;2023-03-17T16:41:05;14.10;91.70
6377;DHT22;3221;48.858;10.128;2023-03-17T16:43:34;14.00;91.90
6377;DHT22;3221;48.858;10.128;2023-03-17T16:46:05;14.00;91.80
6377;DHT22;3221;48.858;10.128;2023-03-17T16:48:32;13.90;91.60
6377;DHT22;3221;48.858;10.128;2023-03-17T16:50:59;13.80;91.90
6377;DHT22;3221;48.858;10.128;2023-03-17T16:53:26;13.80;92.40
6377;DHT22;3221;48.858;10.128;2023-03-17T16:55:54;13.70;92.40
6377;DHT22;3221;48.858;10.128;2023-03-17T16:58:28;13.70;92.80
6377;DHT22;3221;48.858;10.128;2023-03-17T17:00:58;13.70;92.70
6377;DHT22;3221;48.858;10.128;2023-03-17T17:03:25;13.50;93.20
6377;DHT22;3221;48.858;10.128;2023-03-17T17:05:52;13.50;93.50
6377;DHT22;3221;48.858;10.128;2023-03-17T17:08:19;13.60;93.60
6377;DHT22;3221;48.858;10.128;2023-03-17T17:10:46;13.40;93.80
6377;DHT22;3221;48.858;10.128;2023-03-17T17:13:13;13.40;93.90
6377;DHT22;3221;48.858;10.128;2023-03-17T17:15:40;13.40;94.20
6377;DHT22;3221;48.858;10.128;2023-03-17T17:18:22;13.40;94.40
6377;DHT22;3221;48.858;10.128;2023-03-17T17:20:52;13.30;94.60
6377;DHT22;3221;48.858;10.128;2023-03-17T17:23:22;13.40;95.00
6377;DHT22;3221;48.858;10.128;2023-03-17T17:25:49;13.20;94.90
6377;DHT22;3221;48.858;10.128;2023-03-17T17:28:19;13.30;95.20
6377;DHT22;3221;48.858;10.128;2023-03-17T17:30:49;13.20;95.40
6377;DHT22;3221;48.858;10.128;2023-03-17T17:33:16;13.10;95.50
6377;DHT22;3221;48.858;10.128;2023-03-17T17:35:44;13.10;95.60
6377;DHT22;3221;48.858;10.128;2023-03-17T17:38:23;13.00;95.60
6377;DHT22;3221;48.858;10.128;2023-03-17T17:40:53;13.00;95.70
6377;DHT22;3221;48.858;10.128;2023-03-17T17:43:20;13.10;96.00
6377;DHT22;3221;48.858;10.128;2023-03-17T17:45:47;13.00;96.10
6377;DHT22;3221;48.858;10.128;2023-03-17T17:48:19;12.90;96.00
6377;DHT22;3221;48.858;10.128;2023-03-17T17:50:48;12.80;96.10
6377;DHT22;3221;48.858;10.128;2023-03-17T17:53:15;13.00;96.20
6377;DHT22;3221;48.858;10.128;2023-03-17T17:55:45;12.80;96.30
6377;DHT22;3221;48.858;10.128;2023-03-17T17:58:14;12.80;96.30
6377;DHT22;3221;48.858;10.128;2023-03-17T18:00:42;12.70;96.30
6377;DHT22;3221;48.858;10.128;2023-03-17T18:03:09;12.70;96.30
6377;DHT22;3221;48.858;10.128;2023-03-17T18:05:36;12.70;96.30